Time;durP1;ratioP1;P1;durP2;ratioP2;P2;SDS_P1;SDS_P2;PMS_P1;PMS_P2;Temp;Humidity;BMP_temperature;BMP_pressure;BME280_temperature;BME280_humidity;BME280_pressure;Samples;Min_cycle;Max_cycle;Signal;HPM_P1;HPM_P2
2022/12/10 00:00:40;;;;;;;79.63;35.83;;;3.10;99.90;;;;;;5025094;28;20402;-70
2022/12/10 00:03:05;;;;;;;79.38;37.30;;;3.10;99.90;;;;;;5029766;28;20022;-69
2022/12/10 00:05:34;;;;;;;73.38;34.60;;;3.00;99.90;;;;;;5031379;28;20527;-72
2022/12/10 00:07:59;;;;;;;69.65;34.25;;;3.00;99.90;;;;;;5031233;28;20022;-71
2022/12/10 00:10:25;;;;;;;73.75;33.75;;;3.00;99.90;;;;;;5031070;28;20405;-70
2022/12/10 00:12:50;;;;;;;68.93;31.55;;;3.00;99.90;;;;;;5031249;28;20018;-70
2022/12/10 00:15:16;;;;;;;64.20;30.80;;;2.90;99.90;;;;;;5022322;28;20041;-71
2022/12/10 00:17:42;;;;;;;70.03;34.60;;;2.80;99.90;;;;;;5031941;28;20108;-70
2022/12/10 00:20:08;;;;;;;66.20;31.85;;;2.90;99.90;;;;;;5020904;28;20352;-69
2022/12/10 00:22:34;;;;;;;72.65;33.72;;;2.90;99.90;;;;;;5027870;28;20026;-70
2022/12/10 00:25:00;;;;;;;72.18;33.40;;;3.00;99.90;;;;;;5021765;28;20565;-70
2022/12/10 00:27:25;;;;;;;68.75;32.70;;;3.00;99.90;;;;;;5027955;28;20028;-70
2022/12/10 00:29:51;;;;;;;68.55;32.20;;;3.00;99.90;;;;;;5025536;28;20029;-69
2022/12/10 00:32:17;;;;;;;76.13;33.80;;;3.00;99.90;;;;;;5028455;28;20013;-70
2022/12/10 00:34:42;;;;;;;73.35;32.35;;;3.00;99.90;;;;;;5024275;28;20045;-70
2022/12/10 00:37:08;;;;;;;75.78;33.58;;;3.00;99.90;;;;;;5028095;28;20013;-69
2022/12/10 00:39:33;;;;;;;71.40;34.28;;;3.00;99.90;;;;;;5022563;28;20121;-71
2022/12/10 00:41:59;;;;;;;76.72;35.55;;;3.10;99.90;;;;;;5025518;28;20154;-70
2022/12/10 00:44:25;;;;;;;80.82;34.65;;;3.10;99.90;;;;;;5025201;28;20035;-71
2022/12/10 00:46:50;;;;;;;79.32;35.83;;;3.00;99.90;;;;;;5027581;28;20113;-69
2022/12/10 00:49:16;;;;;;;77.57;36.22;;;3.00;99.90;;;;;;5020526;28;20029;-69
2022/12/10 00:51:42;;;;;;;80.03;35.80;;;3.10;99.90;;;;;;5022863;28;20028;-70
2022/12/10 00:54:08;;;;;;;78.72;36.50;;;3.10;99.90;;;;;;5027500;28;20101;-70
2022/12/10 00:56:36;;;;;;;75.63;37.63;;;3.10;99.90;;;;;;5027320;28;20035;-69
2022/12/10 00:59:03;;;;;;;76.28;34.20;;;3.10;99.90;;;;;;5026033;28;20037;-69
2022/12/10 01:01:31;;;;;;;87.93;37.53;;;3.10;99.90;;;;;;5026847;28;20100;-69
2022/12/10 01:04:00;;;;;;;85.30;36.53;;;3.10;99.90;;;;;;5021447;28;21905;-69
2022/12/10 01:06:29;;;;;;;81.50;36.03;;;3.10;99.90;;;;;;5028418;28;20462;-68
2022/12/10 01:09:02;;;;;;;73.60;35.17;;;3.10;99.90;;;;;;5020095;28;20026;-69
2022/12/10 01:11:32;;;;;;;85.10;36.78;;;3.10;99.90;;;;;;5027311;28;20029;-69
2022/12/10 01:13:59;;;;;;;87.03;38.17;;;3.10;99.90;;;;;;5026466;28;20030;-68
2022/12/10 01:16:26;;;;;;;91.47;38.72;;;3.20;99.90;;;;;;5030453;28;20017;-69
2022/12/10 01:18:57;;;;;;;87.95;37.78;;;3.20;99.90;;;;;;5029764;28;20025;-71
2022/12/10 01:21:24;;;;;;;95.20;39.97;;;3.20;99.90;;;;;;5031093;28;20072;-68
2022/12/10 01:23:50;;;;;;;86.95;37.38;;;3.20;99.90;;;;;;5021690;28;20064;-68
2022/12/10 01:26:19;;;;;;;81.03;37.13;;;3.20;99.90;;;;;;5023304;28;20539;-71
2022/12/10 01:28:45;;;;;;;92.70;39.70;;;3.20;99.90;;;;;;5032280;28;20032;-68
2022/12/10 01:31:19;;;;;;;95.75;39.03;;;3.20;99.90;;;;;;5022039;28;20041;-69
2022/12/10 01:33:46;;;;;;;83.13;36.03;;;3.20;99.90;;;;;;5025664;28;20445;-69
2022/12/10 01:36:14;;;;;;;80.55;35.00;;;3.20;99.90;;;;;;5024856;28;20118;-70
2022/12/10 01:38:40;;;;;;;89.80;37.58;;;3.20;99.90;;;;;;5019431;28;20105;-71
2022/12/10 01:41:08;;;;;;;89.72;36.78;;;3.20;99.90;;;;;;5022502;28;20097;-69
2022/12/10 01:43:53;;;;;;;84.25;36.70;;;3.30;99.90;;;;;;5023586;28;20022;-71
2022/12/10 01:46:19;;;;;;;81.40;33.88;;;3.20;99.90;;;;;;5026643;28;20505;-70
2022/12/10 01:48:45;;;;;;;80.40;35.85;;;3.10;99.90;;;;;;5023596;28;20088;-69
2022/12/10 01:51:12;;;;;;;83.47;37.55;;;3.10;99.90;;;;;;5033538;28;20025;-69
2022/12/10 01:53:38;;;;;;;85.55;36.53;;;3.00;99.90;;;;;;5027105;28;20040;-70
2022/12/10 01:56:03;;;;;;;79.45;34.25;;;3.10;99.90;;;;;;5033617;28;20030;-69
2022/12/10 01:58:29;;;;;;;88.53;36.65;;;3.10;99.90;;;;;;5019332;28;20103;-70
2022/12/10 02:01:16;;;;;;;86.20;37.35;;;3.10;99.90;;;;;;5021561;28;20489;-68
2022/12/10 02:03:48;;;;;;;89.18;35.78;;;3.10;99.90;;;;;;5025310;28;20033;-70
2022/12/10 02:06:25;;;;;;;98.95;38.28;;;3.10;99.90;;;;;;5030191;28;20100;-69
2022/12/10 02:09:19;;;;;;;92.30;38.83;;;3.10;99.90;;;;;;5022712;28;20033;-69
2022/12/10 02:12:22;;;;;;;93.85;38.42;;;3.10;99.90;;;;;;5024584;28;20030;-70
2022/12/10 02:14:56;;;;;;;92.13;36.90;;;3.10;99.90;;;;;;4999543;28;20030;-69
2022/12/10 02:17:38;;;;;;;91.53;36.65;;;2.90;99.90;;;;;;5029071;28;20060;-69
2022/12/10 02:20:29;;;;;;;92.28;38.17;;;3.00;99.90;;;;;;5026944;28;20096;-69
2022/12/10 02:22:59;;;;;;;94.82;38.70;;;3.00;99.90;;;;;;5029896;28;20382;-69
2022/12/10 02:25:39;;;;;;;91.65;38.75;;;3.00;99.90;;;;;;5026689;28;20055;-71
2022/12/10 02:28:42;;;;;;;95.07;39.10;;;3.00;99.90;;;;;;5032049;28;20014;-69
2022/12/10 02:31:10;;;;;;;95.25;37.88;;;3.00;99.90;;;;;;5024890;28;20037;-69
2022/12/10 02:33:42;;;;;;;98.70;39.78;;;2.90;99.90;;;;;;5034448;28;20103;-69
2022/12/10 02:36:09;;;;;;;102.53;38.28;;;2.90;99.90;;;;;;5023450;28;20045;-69
2022/12/10 02:38:40;;;;;;;97.53;39.60;;;2.70;99.90;;;;;;5025119;28;20072;-69
2022/12/10 02:41:13;;;;;;;99.60;40.90;;;2.60;99.90;;;;;;5024944;28;20018;-69
2022/12/10 02:43:39;;;;;;;102.72;40.95;;;2.70;99.90;;;;;;5025964;28;20489;-70
2022/12/10 02:46:06;;;;;;;104.68;41.97;;;2.70;99.90;;;;;;5028941;28;20113;-70
2022/12/10 02:48:33;;;;;;;95.10;38.58;;;2.80;99.90;;;;;;5031990;28;20037;-69
2022/12/10 02:50:59;;;;;;;106.78;41.53;;;2.80;99.90;;;;;;5027163;28;20030;-68
2022/12/10 02:53:25;;;;;;;99.03;41.17;;;2.90;99.90;;;;;;5031851;28;20026;-69
2022/12/10 02:55:53;;;;;;;108.65;43.00;;;2.90;99.90;;;;;;5026340;28;20468;-69
2022/12/10 02:58:39;;;;;;;101.80;41.35;;;3.00;99.90;;;;;;5022018;28;20171;-69
2022/12/10 03:01:34;;;;;;;97.57;40.03;;;3.00;99.90;;;;;;5026131;28;20026;-68
2022/12/10 03:04:50;;;;;;;101.63;38.92;;;3.00;99.90;;;;;;5016655;28;20120;-68
2022/12/10 03:07:25;;;;;;;98.65;37.92;;;2.80;99.90;;;;;;5022592;28;20052;-68
2022/12/10 03:10:22;;;;;;;100.90;38.40;;;3.00;99.90;;;;;;5020607;28;20028;-68
2022/12/10 03:12:54;;;;;;;96.88;37.65;;;3.00;99.90;;;;;;5016221;28;20683;-68
2022/12/10 03:15:22;;;;;;;110.90;42.38;;;3.00;99.90;;;;;;5023549;28;20041;-68
2022/12/10 03:17:48;;;;;;;104.13;42.70;;;3.00;99.90;;;;;;5036109;28;20031;-69
2022/12/10 03:20:16;;;;;;;112.65;41.70;;;2.90;99.90;;;;;;5020235;28;20061;-69
2022/12/10 03:22:45;;;;;;;103.38;41.03;;;2.90;99.90;;;;;;5024505;28;20367;-69
2022/12/10 03:25:15;;;;;;;105.88;40.47;;;2.90;99.90;;;;;;5016826;28;20136;-69
2022/12/10 03:27:43;;;;;;;105.32;41.53;;;2.90;99.90;;;;;;5026199;28;20031;-69
2022/12/10 03:30:09;;;;;;;91.50;38.70;;;2.90;99.90;;;;;;5027017;28;20470;-68
2022/12/10 03:32:36;;;;;;;104.68;39.33;;;2.90;99.90;;;;;;5028959;28;20062;-69
2022/12/10 03:35:02;;;;;;;103.55;42.03;;;2.90;99.90;;;;;;5020978;28;20049;-68
2022/12/10 03:37:29;;;;;;;96.90;40.25;;;3.00;99.90;;;;;;5020681;28;20022;-69
2022/12/10 03:39:55;;;;;;;104.82;38.25;;;2.80;99.90;;;;;;5023760;28;20056;-69
2022/12/10 03:42:21;;;;;;;100.45;41.78;;;2.80;99.90;;;;;;5024558;28;20026;-71
2022/12/10 03:44:50;;;;;;;107.57;40.83;;;2.80;99.90;;;;;;5027145;28;20049;-69
2022/12/10 03:47:16;;;;;;;117.80;42.30;;;2.90;99.90;;;;;;5027716;28;20072;-69
2022/12/10 03:49:43;;;;;;;106.25;41.13;;;2.90;99.90;;;;;;5024248;28;20516;-70
2022/12/10 03:52:09;;;;;;;116.40;44.25;;;2.80;99.90;;;;;;5024561;28;20031;-70
2022/12/10 03:54:35;;;;;;;104.88;39.85;;;2.90;99.90;;;;;;5028860;28;20021;-69
2022/12/10 03:57:00;;;;;;;111.93;44.47;;;2.90;99.90;;;;;;5022771;28;20041;-68
2022/12/10 03:59:26;;;;;;;106.60;40.97;;;2.80;99.90;;;;;;5025977;28;20088;-69
2022/12/10 04:01:53;;;;;;;107.38;43.13;;;2.90;99.90;;;;;;5023203;28;20691;-69
2022/12/10 04:04:18;;;;;;;109.25;39.65;;;2.90;99.90;;;;;;5023488;28;20053;-70
2022/12/10 04:06:44;;;;;;;113.35;41.80;;;2.80;99.90;;;;;;5028400;28;20359;-70
2022/12/10 04:09:11;;;;;;;108.25;40.70;;;2.70;99.90;;;;;;5025576;28;20036;-69
2022/12/10 04:11:37;;;;;;;107.35;43.90;;;2.80;99.90;;;;;;5032073;28;20052;-69
2022/12/10 04:16:46;;;;;;;117.93;42.42;;;3.00;99.90;;;;;;5029036;28;20144;-69
2022/12/10 04:19:14;;;;;;;113.07;42.60;;;2.80;99.90;;;;;;5030813;28;20037;-69
2022/12/10 04:27:27;;;;;;;118.38;41.90;;;2.80;99.90;;;;;;5025505;28;20033;-69
2022/12/10 04:29:53;;;;;;;109.97;40.33;;;2.90;99.90;;;;;;5019855;28;20695;-69
2022/12/10 04:32:20;;;;;;;110.00;40.78;;;2.90;99.90;;;;;;5023065;28;20426;-69
2022/12/10 04:34:45;;;;;;;108.25;39.50;;;2.80;99.90;;;;;;5030041;28;20037;-69
2022/12/10 04:37:12;;;;;;;110.30;43.00;;;2.80;99.90;;;;;;5024808;28;20026;-69
2022/12/10 04:39:38;;;;;;;100.78;38.22;;;2.80;99.90;;;;;;5029703;28;20437;-71
2022/12/10 04:42:04;;;;;;;115.03;41.17;;;2.70;99.90;;;;;;5023884;28;20010;-69
2022/12/10 04:44:30;;;;;;;109.35;39.88;;;2.60;99.90;;;;;;5031246;28;20472;-69
2022/12/10 04:46:56;;;;;;;107.65;40.30;;;2.60;99.90;;;;;;5023372;28;20482;-68
2022/12/10 04:49:22;;;;;;;104.40;39.85;;;2.60;99.90;;;;;;5036280;28;20040;-69
2022/12/10 04:51:47;;;;;;;109.22;38.97;;;2.70;99.90;;;;;;5020557;28;20471;-69
2022/12/10 04:54:14;;;;;;;98.95;37.97;;;2.70;99.90;;;;;;5025104;28;20033;-70
2022/12/10 04:56:40;;;;;;;98.15;37.13;;;2.80;99.90;;;;;;5031762;28;20029;-68
2022/12/10 04:59:06;;;;;;;101.93;36.97;;;2.80;99.90;;;;;;5028845;28;20017;-69
2022/12/10 05:01:33;;;;;;;92.53;38.42;;;2.80;99.90;;;;;;5025142;28;20064;-70
2022/12/10 05:04:01;;;;;;;95.63;37.08;;;2.90;99.90;;;;;;5026323;28;20053;-68
2022/12/10 05:06:27;;;;;;;91.65;35.80;;;2.90;99.90;;;;;;5024074;28;20091;-68
2022/12/10 05:08:53;;;;;;;83.90;36.10;;;2.90;99.90;;;;;;5027512;28;20021;-68
2022/12/10 05:11:21;;;;;;;89.28;36.33;;;2.90;99.90;;;;;;5025693;28;20033;-70
2022/12/10 05:13:47;;;;;;;95.90;37.20;;;3.00;99.90;;;;;;5026016;28;20037;-68
2022/12/10 05:16:17;;;;;;;93.07;37.85;;;3.00;99.90;;;;;;5026510;28;20033;-68
2022/12/10 05:18:42;;;;;;;91.07;35.60;;;2.90;99.90;;;;;;5027224;28;20018;-68
2022/12/10 05:21:13;;;;;;;98.53;35.30;;;2.70;99.90;;;;;;5024461;28;20486;-70
2022/12/10 05:23:40;;;;;;;96.90;37.95;;;2.50;99.90;;;;;;5024477;28;20120;-69
2022/12/10 05:26:13;;;;;;;98.18;36.90;;;2.50;99.90;;;;;;5026630;28;20025;-70
2022/12/10 05:28:41;;;;;;;92.85;35.85;;;2.50;99.90;;;;;;5033578;28;20021;-69
2022/12/10 05:31:16;;;;;;;94.65;35.80;;;2.40;99.90;;;;;;5030353;28;20029;-70
2022/12/10 05:33:42;;;;;;;90.45;35.17;;;2.30;99.90;;;;;;5022839;28;20041;-69
2022/12/10 05:36:11;;;;;;;92.75;36.38;;;2.30;99.90;;;;;;5023255;28;20390;-68
2022/12/10 05:38:37;;;;;;;93.20;36.22;;;2.40;99.90;;;;;;5022906;28;20105;-69
2022/12/10 05:41:15;;;;;;;92.38;34.47;;;2.40;99.90;;;;;;5031805;28;20378;-68
2022/12/10 05:43:42;;;;;;;90.35;33.85;;;2.40;99.90;;;;;;5018501;28;20105;-70
2022/12/10 05:46:12;;;;;;;94.82;35.45;;;2.50;99.90;;;;;;5022520;28;20034;-69
2022/12/10 05:48:38;;;;;;;100.03;38.10;;;2.50;99.90;;;;;;5025161;28;20029;-70
2022/12/10 05:51:08;;;;;;;97.63;37.40;;;2.50;99.90;;;;;;5024288;28;20022;-69
2022/12/10 05:53:34;;;;;;;97.65;36.13;;;2.40;99.90;;;;;;5022519;28;20022;-70
2022/12/10 05:56:05;;;;;;;99.88;38.75;;;2.50;99.90;;;;;;5024011;28;20025;-69
2022/12/10 05:58:31;;;;;;;103.85;36.92;;;2.50;99.90;;;;;;5031849;28;20048;-69
2022/12/10 06:00:58;;;;;;;100.47;36.67;;;2.50;99.90;;;;;;5034554;28;20079;-69
2022/12/10 06:03:24;;;;;;;91.15;36.15;;;2.60;99.90;;;;;;5020659;28;20409;-69
2022/12/10 06:05:50;;;;;;;95.00;36.97;;;2.60;99.90;;;;;;5020651;28;20044;-70
2022/12/10 06:08:15;;;;;;;93.18;38.20;;;2.60;99.90;;;;;;5027107;28;20018;-69
2022/12/10 06:10:41;;;;;;;108.25;40.53;;;2.60;99.90;;;;;;5022361;28;20140;-68
2022/12/10 06:13:06;;;;;;;98.38;37.60;;;2.60;99.90;;;;;;5027213;28;20108;-69
2022/12/10 06:15:32;;;;;;;100.22;38.10;;;2.60;99.90;;;;;;5022142;28;20088;-69
2022/12/10 06:18:00;;;;;;;98.63;36.78;;;2.70;99.90;;;;;;5025793;28;20052;-69
2022/12/10 06:20:26;;;;;;;103.15;41.05;;;2.70;99.90;;;;;;5028609;28;20567;-68
2022/12/10 06:22:52;;;;;;;94.55;38.05;;;2.60;99.90;;;;;;5030031;28;20363;-68
2022/12/10 06:25:18;;;;;;;97.45;35.53;;;2.70;99.90;;;;;;5023024;28;20043;-69
2022/12/10 06:27:44;;;;;;;99.75;37.90;;;2.60;99.90;;;;;;5026419;28;20524;-69
2022/12/10 06:30:10;;;;;;;77.45;30.67;;;2.70;99.90;;;;;;5024497;28;20030;-70
2022/12/10 06:32:36;;;;;;;103.18;37.63;;;2.80;99.90;;;;;;5021696;28;20474;-68
2022/12/10 06:35:02;;;;;;;101.65;37.00;;;2.70;99.90;;;;;;5028738;28;20032;-68
2022/12/10 06:37:28;;;;;;;97.40;37.35;;;2.70;99.90;;;;;;5023259;28;20394;-70
2022/12/10 06:39:53;;;;;;;92.70;34.63;;;2.70;99.90;;;;;;5031892;28;20031;-68
2022/12/10 06:42:20;;;;;;;98.38;36.78;;;2.70;99.90;;;;;;5020655;28;20049;-70
2022/12/10 06:44:46;;;;;;;105.53;36.90;;;2.60;99.90;;;;;;5026656;28;20040;-70
2022/12/10 06:47:12;;;;;;;110.25;37.05;;;2.70;99.90;;;;;;5021631;28;20030;-68
2022/12/10 06:49:37;;;;;;;112.32;40.30;;;2.70;99.90;;;;;;5024593;28;20409;-68
2022/12/10 06:52:03;;;;;;;112.63;37.40;;;2.60;99.90;;;;;;5027419;28;20032;-69
2022/12/10 06:54:30;;;;;;;122.72;38.03;;;2.60;99.90;;;;;;5026218;28;20026;-70
2022/12/10 06:56:56;;;;;;;114.97;38.70;;;2.60;99.90;;;;;;5030130;28;20382;-70
2022/12/10 06:59:22;;;;;;;112.38;39.50;;;2.60;99.90;;;;;;5020745;28;20096;-69
2022/12/10 07:01:48;;;;;;;131.27;41.75;;;2.50;99.90;;;;;;5056868;28;20043;-69
2022/12/10 07:04:14;;;;;;;108.35;38.13;;;2.50;99.90;;;;;;5028433;28;20044;-69
2022/12/10 07:06:40;;;;;;;114.28;39.17;;;2.60;99.90;;;;;;5029884;28;20085;-69
2022/12/10 07:09:05;;;;;;;108.25;39.30;;;2.40;99.90;;;;;;5020165;28;20123;-69
2022/12/10 07:11:31;;;;;;;122.78;39.30;;;2.40;99.90;;;;;;5033034;28;20059;-70
2022/12/10 07:13:58;;;;;;;118.65;40.90;;;2.50;99.90;;;;;;5021843;28;20049;-69
2022/12/10 07:16:31;;;;;;;116.97;40.08;;;2.40;99.90;;;;;;5027641;28;20041;-68
2022/12/10 07:18:59;;;;;;;136.60;42.92;;;2.50;99.90;;;;;;5020018;28;20036;-69
2022/12/10 07:21:29;;;;;;;121.07;41.63;;;2.50;99.90;;;;;;5025254;28;20367;-69
2022/12/10 07:23:57;;;;;;;117.75;40.85;;;2.60;99.90;;;;;;5034667;28;20029;-70
2022/12/10 07:26:28;;;;;;;137.13;40.25;;;2.50;99.90;;;;;;5029627;28;20029;-69
2022/12/10 07:28:54;;;;;;;129.70;41.03;;;2.40;99.90;;;;;;5021359;28;20026;-70
2022/12/10 07:31:21;;;;;;;122.78;39.05;;;2.20;99.90;;;;;;5032243;28;20103;-70
2022/12/10 07:33:47;;;;;;;117.03;38.10;;;2.20;99.90;;;;;;5024410;28;20064;-70
2022/12/10 07:36:14;;;;;;;133.23;39.90;;;2.30;99.90;;;;;;5030657;28;20033;-71
2022/12/10 07:38:40;;;;;;;116.78;38.83;;;2.40;99.90;;;;;;5021425;28;20029;-69
2022/12/10 07:41:08;;;;;;;123.60;39.90;;;2.50;99.90;;;;;;5027112;28;20031;-69
2022/12/10 07:43:35;;;;;;;132.15;40.10;;;2.50;99.90;;;;;;5028465;28;20025;-70
2022/12/10 07:46:21;;;;;;;115.93;38.15;;;2.30;99.90;;;;;;5023772;28;20026;-71
2022/12/10 07:48:48;;;;;;;119.43;39.55;;;2.10;99.90;;;;;;5027517;28;20135;-69
2022/12/10 07:51:14;;;;;;;126.45;40.35;;;2.20;99.90;;;;;;5025372;28;20025;-70
2022/12/10 07:53:40;;;;;;;132.27;44.08;;;2.20;99.90;;;;;;5030059;28;20029;-69
2022/12/10 07:56:06;;;;;;;114.93;40.30;;;2.20;99.90;;;;;;5025314;28;20021;-69
2022/12/10 07:58:32;;;;;;;127.22;41.30;;;2.20;99.90;;;;;;5028829;28;20040;-71
2022/12/10 08:00:58;;;;;;;117.55;41.10;;;2.30;99.90;;;;;;5024578;28;20025;-70
2022/12/10 08:03:24;;;;;;;125.80;42.00;;;2.30;99.90;;;;;;5030606;28;20438;-70
2022/12/10 08:06:04;;;;;;;121.50;40.08;;;2.40;99.90;;;;;;5023797;28;20044;-71
2022/12/10 08:08:30;;;;;;;126.68;41.28;;;2.50;99.90;;;;;;5026173;28;20470;-71
2022/12/10 08:10:59;;;;;;;131.77;40.63;;;2.50;99.90;;;;;;5026326;28;20057;-70
2022/12/10 08:13:25;;;;;;;125.15;39.50;;;2.50;99.90;;;;;;5028272;28;20025;-69
2022/12/10 08:15:51;;;;;;;118.55;37.65;;;2.40;99.90;;;;;;5028179;28;20138;-71
2022/12/10 08:18:16;;;;;;;114.28;39.15;;;2.40;99.90;;;;;;5029886;28;20034;-69
2022/12/10 08:20:42;;;;;;;121.35;40.13;;;2.40;99.90;;;;;;5029034;28;20100;-70
2022/12/10 08:23:07;;;;;;;122.97;39.45;;;2.50;99.90;;;;;;5034305;28;20017;-71
2022/12/10 08:25:33;;;;;;;112.25;38.58;;;2.50;99.90;;;;;;5024004;28;20446;-70
2022/12/10 08:28:02;;;;;;;113.40;35.97;;;2.40;99.90;;;;;;5029964;28;20030;-70
2022/12/10 08:30:28;;;;;;;111.80;35.50;;;2.40;99.90;;;;;;5021512;28;20053;-71
2022/12/10 08:32:54;;;;;;;112.88;36.17;;;2.20;99.90;;;;;;5024853;28;20545;-71
2022/12/10 08:35:20;;;;;;;121.68;37.60;;;2.20;99.90;;;;;;5024958;28;20108;-71
2022/12/10 08:37:45;;;;;;;114.68;36.20;;;2.10;99.90;;;;;;5027022;28;20017;-71
2022/12/10 08:40:11;;;;;;;110.28;35.67;;;2.20;99.90;;;;;;5023965;28;20045;-70
2022/12/10 08:42:38;;;;;;;114.30;37.45;;;2.20;99.90;;;;;;5024135;28;20087;-70
2022/12/10 08:45:04;;;;;;;112.57;36.58;;;2.20;99.90;;;;;;5021738;28;20398;-69
2022/12/10 08:47:29;;;;;;;130.77;39.00;;;2.30;99.90;;;;;;5025312;28;20060;-67
2022/12/10 08:49:55;;;;;;;125.22;39.35;;;2.20;99.90;;;;;;5025964;28;20220;-68
2022/12/10 08:52:20;;;;;;;127.72;39.47;;;2.30;99.90;;;;;;5027300;28;20026;-69
2022/12/10 08:54:46;;;;;;;130.68;38.85;;;2.20;99.90;;;;;;5031878;28;20022;-69
2022/12/10 08:57:12;;;;;;;120.63;36.50;;;2.10;99.90;;;;;;5023857;28;20082;-69
2022/12/10 08:59:37;;;;;;;125.13;38.10;;;2.20;99.90;;;;;;5022394;28;20057;-70
2022/12/10 09:02:03;;;;;;;122.82;37.83;;;2.10;99.90;;;;;;5031963;28;20028;-69
2022/12/10 09:04:29;;;;;;;129.07;38.85;;;2.20;99.90;;;;;;5028853;28;20044;-69
2022/12/10 09:06:54;;;;;;;117.15;37.33;;;2.20;99.90;;;;;;5031602;28;20079;-70
2022/12/10 09:09:20;;;;;;;125.97;38.05;;;2.30;99.90;;;;;;5031464;28;20422;-70
2022/12/10 09:11:46;;;;;;;135.98;37.75;;;2.20;99.90;;;;;;5023886;28;20028;-69
2022/12/10 09:14:12;;;;;;;129.20;37.85;;;2.00;99.90;;;;;;5025662;28;20029;-69
2022/12/10 09:16:39;;;;;;;128.55;37.50;;;2.10;99.90;;;;;;5024314;28;20036;-69
2022/12/10 09:19:05;;;;;;;129.50;39.13;;;2.10;99.90;;;;;;5021346;28;20022;-70
2022/12/10 09:21:31;;;;;;;128.95;39.25;;;2.10;99.90;;;;;;5024436;28;20025;-69
2022/12/10 09:23:58;;;;;;;128.18;38.55;;;1.90;99.90;;;;;;5026214;28;20060;-69
2022/12/10 09:26:24;;;;;;;126.30;38.05;;;2.00;99.90;;;;;;5026741;28;20037;-69
2022/12/10 09:28:50;;;;;;;138.25;39.83;;;2.10;99.90;;;;;;5019789;28;20022;-69
2022/12/10 09:31:17;;;;;;;130.35;39.10;;;2.00;99.90;;;;;;5030099;28;20030;-70
2022/12/10 09:33:43;;;;;;;128.23;37.70;;;2.00;99.90;;;;;;5026779;28;20022;-69
2022/12/10 09:36:11;;;;;;;133.00;41.08;;;1.80;99.90;;;;;;5031936;28;20104;-69
2022/12/10 09:38:39;;;;;;;123.32;38.75;;;1.80;99.90;;;;;;5031643;28;20022;-69
2022/12/10 09:41:13;;;;;;;116.78;35.22;;;1.80;99.90;;;;;;5026083;28;20030;-69
2022/12/10 09:43:51;;;;;;;104.18;34.38;;;1.90;99.90;;;;;;5027861;28;20026;-69
2022/12/10 09:46:19;;;;;;;107.28;34.22;;;1.90;99.90;;;;;;5031142;28;20036;-69
2022/12/10 09:48:59;;;;;;;119.93;35.97;;;2.10;99.90;;;;;;5031551;28;20096;-69
2022/12/10 09:51:29;;;;;;;129.60;37.40;;;2.20;99.90;;;;;;5025038;28;20076;-70
2022/12/10 09:54:00;;;;;;;123.15;36.15;;;2.20;99.90;;;;;;5031028;28;20462;-69
2022/12/10 09:56:39;;;;;;;118.95;36.53;;;2.10;99.90;;;;;;5029969;28;20100;-68
2022/12/10 09:59:17;;;;;;;124.07;38.03;;;2.20;99.90;;;;;;5020940;28;20029;-69
2022/12/10 10:01:44;;;;;;;126.28;37.72;;;2.20;99.90;;;;;;5026185;28;20032;-69
2022/12/10 10:04:10;;;;;;;125.70;35.88;;;2.30;99.90;;;;;;5022085;28;20051;-69
2022/12/10 10:06:36;;;;;;;114.93;36.28;;;2.30;99.90;;;;;;5030004;28;20026;-69
2022/12/10 10:09:03;;;;;;;120.47;37.58;;;2.40;99.90;;;;;;5024666;28;20052;-69
2022/12/10 10:11:31;;;;;;;111.32;36.80;;;2.50;99.90;;;;;;5024166;28;20071;-69
2022/12/10 10:13:59;;;;;;;127.00;39.88;;;2.60;99.90;;;;;;5016944;28;20040;-69
2022/12/10 10:16:32;;;;;;;124.10;38.25;;;2.60;99.90;;;;;;5024308;28;20036;-69
2022/12/10 10:19:11;;;;;;;115.38;36.38;;;2.40;99.90;;;;;;5021326;28;20018;-69
2022/12/10 10:21:42;;;;;;;116.07;36.58;;;2.50;99.90;;;;;;5027853;28;20439;-69
2022/12/10 10:24:15;;;;;;;141.05;41.60;;;2.40;99.90;;;;;;5019669;28;20114;-69
2022/12/10 10:26:40;;;;;;;119.25;39.97;;;2.50;99.90;;;;;;5027594;28;20032;-69
2022/12/10 10:29:10;;;;;;;124.15;39.28;;;2.60;99.90;;;;;;5021938;28;20108;-69
2022/12/10 10:31:39;;;;;;;116.93;39.67;;;2.60;99.90;;;;;;5024631;28;20059;-69
2022/12/10 10:34:18;;;;;;;119.95;39.80;;;2.60;99.90;;;;;;5031753;28;20071;-69
2022/12/10 10:36:45;;;;;;;119.38;37.83;;;2.60;99.90;;;;;;5022001;28;20021;-69
2022/12/10 10:39:18;;;;;;;109.30;36.28;;;2.70;99.90;;;;;;5024389;28;20022;-69
2022/12/10 10:41:46;;;;;;;107.15;36.58;;;2.70;99.90;;;;;;5022459;28;20520;-69
2022/12/10 10:44:18;;;;;;;108.00;34.83;;;2.70;99.90;;;;;;5031023;28;20065;-69
2022/12/10 10:46:50;;;;;;;108.28;37.63;;;2.70;99.90;;;;;;5032435;28;20073;-69
2022/12/10 10:49:18;;;;;;;116.53;38.15;;;2.80;99.90;;;;;;5043927;28;20049;-70
2022/12/10 10:51:47;;;;;;;122.78;38.97;;;2.80;99.90;;;;;;5032213;28;20056;-69
2022/12/10 10:54:36;;;;;;;126.07;39.90;;;2.70;99.90;;;;;;5023363;28;20018;-69
2022/12/10 10:57:06;;;;;;;119.20;39.05;;;2.80;99.90;;;;;;5030500;28;20025;-69
2022/12/10 10:59:36;;;;;;;121.68;38.60;;;2.70;99.90;;;;;;5030454;28;20029;-68
2022/12/10 11:02:26;;;;;;;108.03;39.70;;;2.90;99.90;;;;;;5036169;28;20389;-69
2022/12/10 11:04:54;;;;;;;98.78;35.55;;;2.80;99.90;;;;;;5029047;28;20073;-69
2022/12/10 11:07:21;;;;;;;117.10;37.22;;;2.70;99.90;;;;;;5022876;28;20041;-70
2022/12/10 11:09:48;;;;;;;101.78;35.15;;;2.60;99.90;;;;;;5028543;28;20079;-69
2022/12/10 11:12:33;;;;;;;110.30;37.67;;;2.70;99.90;;;;;;5032744;28;20475;-69
2022/12/10 11:14:59;;;;;;;112.78;37.35;;;2.70;99.90;;;;;;5027090;28;20065;-69
2022/12/10 11:17:27;;;;;;;114.60;38.80;;;2.70;99.90;;;;;;5030021;28;20097;-69
2022/12/10 11:19:59;;;;;;;116.85;41.08;;;2.70;99.90;;;;;;5027827;28;20025;-69
2022/12/10 11:22:33;;;;;;;116.88;37.65;;;2.80;99.90;;;;;;5030918;28;20443;-69
2022/12/10 11:25:00;;;;;;;111.78;38.03;;;2.80;99.90;;;;;;5026109;28;20138;-69
2022/12/10 11:27:40;;;;;;;116.88;37.67;;;2.70;99.90;;;;;;5023424;28;20053;-69
2022/12/10 11:30:21;;;;;;;119.35;40.15;;;2.70;99.90;;;;;;5023719;28;20048;-69
2022/12/10 11:32:56;;;;;;;112.75;38.03;;;2.60;99.90;;;;;;5025297;28;20089;-69
2022/12/10 11:35:47;;;;;;;115.43;38.53;;;2.70;99.90;;;;;;5033701;28;20022;-69
2022/12/10 11:38:19;;;;;;;119.85;38.05;;;2.80;99.90;;;;;;5014473;28;20049;-69
2022/12/10 11:40:49;;;;;;;106.57;35.95;;;2.80;99.90;;;;;;5026725;28;20505;-68
2022/12/10 11:43:21;;;;;;;104.65;35.65;;;2.90;99.90;;;;;;5027109;28;20090;-69
2022/12/10 11:46:08;;;;;;;115.45;38.20;;;2.90;99.90;;;;;;5028758;28;20033;-68
2022/12/10 11:48:48;;;;;;;119.28;37.97;;;2.70;99.90;;;;;;5027285;28;20394;-68
2022/12/10 11:51:33;;;;;;;112.45;37.83;;;2.60;99.90;;;;;;5027771;28;20493;-68
2022/12/10 11:54:26;;;;;;;111.32;37.97;;;2.60;99.90;;;;;;5021118;28;20022;-68
2022/12/10 11:57:08;;;;;;;105.35;34.60;;;2.60;99.90;;;;;;5033182;28;20030;-68
2022/12/10 11:59:51;;;;;;;108.82;34.45;;;2.60;99.90;;;;;;5025689;28;20026;-68
2022/12/10 12:02:28;;;;;;;;;;;2.60;99.90;;;;;;5029671;28;20029;-68
2022/12/10 12:05:12;;;;;;;115.90;35.13;;;2.60;99.90;;;;;;5024478;28;19959;-68
2022/12/10 12:07:46;;;;;;;111.15;34.45;;;2.50;99.90;;;;;;5033610;28;20052;-68
2022/12/10 12:10:27;;;;;;;115.55;36.00;;;2.40;99.90;;;;;;5022718;28;20053;-68
2022/12/10 12:13:14;;;;;;;121.07;38.75;;;2.50;99.90;;;;;;5032331;28;20026;-68
2022/12/10 12:15:54;;;;;;;127.80;39.22;;;2.60;99.90;;;;;;5033207;28;20160;-68
2022/12/10 12:18:51;;;;;;;121.28;37.08;;;2.70;99.90;;;;;;5042755;28;20467;-69
2022/12/10 12:21:17;;;;;;;126.18;37.40;;;2.80;99.90;;;;;;5027406;28;20083;-68
2022/12/10 12:23:53;;;;;;;124.05;39.05;;;2.90;99.90;;;;;;5032311;28;20040;-68
2022/12/10 12:26:38;;;;;;;130.43;40.45;;;2.90;99.90;;;;;;5025732;28;20490;-69
2022/12/10 12:29:28;;;;;;;111.95;37.33;;;3.00;99.90;;;;;;5029076;28;20060;-68
2022/12/10 12:31:59;;;;;;;123.45;36.40;;;3.00;99.90;;;;;;5031214;28;20028;-68
2022/12/10 12:34:34;;;;;;;116.78;35.28;;;3.20;99.90;;;;;;5031899;28;20025;-68
2022/12/10 12:37:01;;;;;;;117.43;36.00;;;3.10;99.90;;;;;;5031791;28;20021;-68
2022/12/10 12:39:38;;;;;;;125.38;36.67;;;3.20;99.90;;;;;;5024071;28;20024;-68
2022/12/10 12:42:18;;;;;;;123.95;36.65;;;3.20;99.90;;;;;;5030540;28;20100;-69
2022/12/10 12:44:44;;;;;;;123.68;37.80;;;3.20;99.90;;;;;;5027285;28;20385;-69
2022/12/10 12:47:24;;;;;;;121.40;36.70;;;3.00;99.90;;;;;;5029116;28;20025;-68
2022/12/10 12:49:51;;;;;;;118.25;38.08;;;2.80;99.90;;;;;;5025910;28;20021;-68
2022/12/10 12:52:22;;;;;;;119.78;39.55;;;2.80;99.90;;;;;;5020137;28;20025;-69